sensor_id;sensor_type;location;lat;lon;timestamp;pressure;altitude;pressure_sealevel;temperature;humidity
54900;BME280;40801;41.924;25.562;2023-02-12T00:00:03;100573.81;;;-1.88;50.85
54900;BME280;40801;41.924;25.562;2023-02-12T00:02:29;100588.94;;;-2.03;51.69
54900;BME280;40801;41.924;25.562;2023-02-12T00:04:55;100572.72;;;-2.00;51.49
54900;BME280;40801;41.924;25.562;2023-02-12T00:07:20;100571.09;;;-2.01;51.72
54900;BME280;40801;41.924;25.562;2023-02-12T00:09:45;100566.72;;;-2.15;52.43
54900;BME280;40801;41.924;25.562;2023-02-12T00:12:11;100574.66;;;-2.15;52.26
54900;BME280;40801;41.924;25.562;2023-02-12T00:14:36;100578.06;;;-2.21;52.16
54900;BME280;40801;41.924;25.562;2023-02-12T00:17:02;100585.22;;;-2.15;51.91
54900;BME280;40801;41.924;25.562;2023-02-12T00:19:28;100587.31;;;-2.04;51.61
54900;BME280;40801;41.924;25.562;2023-02-12T00:21:53;100583.84;;;-2.04;52.25
54900;BME280;40801;41.924;25.562;2023-02-12T00:24:18;100575.50;;;-2.08;52.22
54900;BME280;40801;41.924;25.562;2023-02-12T00:26:44;100578.56;;;-2.04;52.22
54900;BME280;40801;41.924;25.562;2023-02-12T00:29:09;100568.25;;;-1.99;51.83
54900;BME280;40801;41.924;25.562;2023-02-12T00:31:35;100563.63;;;-1.91;51.69
54900;BME280;40801;41.924;25.562;2023-02-12T00:34:00;100568.75;;;-1.82;51.88
54900;BME280;40801;41.924;25.562;2023-02-12T00:36:28;100572.19;;;-1.89;52.23
54900;BME280;40801;41.924;25.562;2023-02-12T00:38:55;100574.84;;;-1.82;52.01
54900;BME280;40801;41.924;25.562;2023-02-12T00:41:21;100570.69;;;-1.63;50.55
54900;BME280;40801;41.924;25.562;2023-02-12T00:43:48;100574.19;;;-1.56;50.65
54900;BME280;40801;41.924;25.562;2023-02-12T00:46:13;100557.28;;;-1.62;51.68
54900;BME280;40801;41.924;25.562;2023-02-12T00:48:39;100555.44;;;-1.61;51.72
54900;BME280;40801;41.924;25.562;2023-02-12T00:51:05;100562.19;;;-1.52;51.40
54900;BME280;40801;41.924;25.562;2023-02-12T00:53:31;100554.88;;;-1.50;51.08
54900;BME280;40801;41.924;25.562;2023-02-12T00:55:57;100556.75;;;-1.44;51.20
54900;BME280;40801;41.924;25.562;2023-02-12T00:58:23;100552.31;;;-1.30;50.21
54900;BME280;40801;41.924;25.562;2023-02-12T01:00:48;100556.41;;;-1.28;50.32
54900;BME280;40801;41.924;25.562;2023-02-12T01:03:14;100544.19;;;-1.29;50.35
54900;BME280;40801;41.924;25.562;2023-02-12T01:05:40;100537.53;;;-1.11;49.57
54900;BME280;40801;41.924;25.562;2023-02-12T01:08:06;100541.16;;;-1.19;50.23
54900;BME280;40801;41.924;25.562;2023-02-12T01:10:31;100536.31;;;-1.09;49.42
54900;BME280;40801;41.924;25.562;2023-02-12T01:12:57;100534.06;;;-1.05;49.60
54900;BME280;40801;41.924;25.562;2023-02-12T01:15:22;100529.38;;;-1.10;49.60
54900;BME280;40801;41.924;25.562;2023-02-12T01:17:51;100521.84;;;-1.06;49.57
54900;BME280;40801;41.924;25.562;2023-02-12T01:20:18;100528.38;;;-1.02;49.21
54900;BME280;40801;41.924;25.562;2023-02-12T01:22:44;100525.53;;;-0.94;49.25
54900;BME280;40801;41.924;25.562;2023-02-12T01:25:10;100515.16;;;-0.89;49.01
54900;BME280;40801;41.924;25.562;2023-02-12T01:27:36;100508.25;;;-0.83;48.60
54900;BME280;40801;41.924;25.562;2023-02-12T01:30:02;100507.44;;;-0.71;48.47
54900;BME280;40801;41.924;25.562;2023-02-12T01:32:28;100501.13;;;-0.76;48.73
54900;BME280;40801;41.924;25.562;2023-02-12T01:34:53;100504.19;;;-0.73;48.59
54900;BME280;40801;41.924;25.562;2023-02-12T01:37:18;100504.19;;;-0.73;49.37
54900;BME280;40801;41.924;25.562;2023-02-12T01:39:44;100505.00;;;-0.66;49.30
54900;BME280;40801;41.924;25.562;2023-02-12T01:42:11;100500.50;;;-0.78;49.17
54900;BME280;40801;41.924;25.562;2023-02-12T01:44:43;100506.63;;;-0.65;49.26
54900;BME280;40801;41.924;25.562;2023-02-12T01:47:16;100492.97;;;-0.62;48.78
54900;BME280;40801;41.924;25.562;2023-02-12T01:49:44;100497.03;;;-0.46;47.81
54900;BME280;40801;41.924;25.562;2023-02-12T01:52:26;100503.97;;;-0.51;48.22
54900;BME280;40801;41.924;25.562;2023-02-12T01:54:54;100490.91;;;-0.40;47.90
54900;BME280;40801;41.924;25.562;2023-02-12T01:57:23;100493.78;;;-0.41;48.34
54900;BME280;40801;41.924;25.562;2023-02-12T01:59:52;100495.41;;;-0.47;48.60
54900;BME280;40801;41.924;25.562;2023-02-12T02:02:18;100490.50;;;-0.43;48.65
54900;BME280;40801;41.924;25.562;2023-02-12T02:04:52;100494.59;;;-0.47;48.85
54900;BME280;40801;41.924;25.562;2023-02-12T02:07:20;100493.56;;;-0.40;47.97
54900;BME280;40801;41.924;25.562;2023-02-12T02:09:45;100498.06;;;-0.47;48.72
54900;BME280;40801;41.924;25.562;2023-02-12T02:12:11;100496.44;;;-0.48;47.88
54900;BME280;40801;41.924;25.562;2023-02-12T02:14:57;100492.56;;;-0.65;48.78
54900;BME280;40801;41.924;25.562;2023-02-12T02:17:35;100497.25;;;-0.74;48.87
54900;BME280;40801;41.924;25.562;2023-02-12T02:31:40;100503.13;;;-0.98;49.15
54900;BME280;40801;41.924;25.562;2023-02-12T02:42:22;100503.91;;;-1.17;50.55
54900;BME280;40801;41.924;25.562;2023-02-12T02:47:30;100507.97;;;-1.21;50.78
54900;BME280;40801;41.924;25.562;2023-02-12T02:50:03;100511.41;;;-1.34;51.29
54900;BME280;40801;41.924;25.562;2023-02-12T02:52:37;100504.69;;;-1.37;51.48
54900;BME280;40801;41.924;25.562;2023-02-12T02:55:06;100508.53;;;-1.39;51.23
54900;BME280;40801;41.924;25.562;2023-02-12T02:58:06;100506.31;;;-1.42;53.24
54900;BME280;40801;41.924;25.562;2023-02-12T03:00:39;100511.34;;;-1.47;52.10
54900;BME280;40801;41.924;25.562;2023-02-12T03:03:10;100516.63;;;-1.47;52.08
54900;BME280;40801;41.924;25.562;2023-02-12T03:05:44;100514.00;;;-1.47;52.17
54900;BME280;40801;41.924;25.562;2023-02-12T03:08:16;100520.91;;;-1.46;52.48
54900;BME280;40801;41.924;25.562;2023-02-12T03:10:47;100507.06;;;-1.48;52.49
54900;BME280;40801;41.924;25.562;2023-02-12T03:13:19;100515.38;;;-1.58;54.69
54900;BME280;40801;41.924;25.562;2023-02-12T03:15:57;100515.16;;;-1.70;53.71
54900;BME280;40801;41.924;25.562;2023-02-12T03:18:28;100514.88;;;-1.75;53.20
54900;BME280;40801;41.924;25.562;2023-02-12T03:21:00;100509.56;;;-1.88;53.95
54900;BME280;40801;41.924;25.562;2023-02-12T03:23:38;100519.09;;;-1.94;54.55
54900;BME280;40801;41.924;25.562;2023-02-12T03:26:14;100511.31;;;-2.02;54.49
54900;BME280;40801;41.924;25.562;2023-02-12T03:28:42;100515.81;;;-1.96;53.09
54900;BME280;40801;41.924;25.562;2023-02-12T03:34:17;100513.19;;;-1.96;55.67
54900;BME280;40801;41.924;25.562;2023-02-12T03:37:13;100510.53;;;-1.96;55.75
54900;BME280;40801;41.924;25.562;2023-02-12T03:39:56;100507.03;;;-2.03;56.10
54900;BME280;40801;41.924;25.562;2023-02-12T03:43:02;100504.84;;;-1.93;55.76
54900;BME280;40801;41.924;25.562;2023-02-12T03:48:17;100492.63;;;-2.00;55.54
54900;BME280;40801;41.924;25.562;2023-02-12T03:50:57;100492.44;;;-1.99;55.24
54900;BME280;40801;41.924;25.562;2023-02-12T03:53:24;100494.91;;;-1.91;54.53
54900;BME280;40801;41.924;25.562;2023-02-12T03:55:54;100485.75;;;-1.95;54.76
54900;BME280;40801;41.924;25.562;2023-02-12T03:58:25;100486.56;;;-1.94;54.86
54900;BME280;40801;41.924;25.562;2023-02-12T04:00:52;100471.94;;;-1.90;54.22
54900;BME280;40801;41.924;25.562;2023-02-12T04:03:17;100479.50;;;-1.80;53.82
54900;BME280;40801;41.924;25.562;2023-02-12T04:05:43;100483.97;;;-1.74;53.14
54900;BME280;40801;41.924;25.562;2023-02-12T04:08:09;100483.84;;;-1.66;53.66
54900;BME280;40801;41.924;25.562;2023-02-12T04:11:12;100483.84;;;-1.60;54.08
54900;BME280;40801;41.924;25.562;2023-02-12T04:13:47;100476.97;;;-1.47;53.00
54900;BME280;40801;41.924;25.562;2023-02-12T04:16:50;100485.75;;;-1.34;53.21
54900;BME280;40801;41.924;25.562;2023-02-12T04:28:33;100471.75;;;-0.88;52.22
54900;BME280;40801;41.924;25.562;2023-02-12T04:33:50;100481.56;;;-0.69;51.24
54900;BME280;40801;41.924;25.562;2023-02-12T04:36:24;100477.28;;;-0.70;51.14
54900;BME280;40801;41.924;25.562;2023-02-12T04:39:03;100486.25;;;-0.84;52.41
54900;BME280;40801;41.924;25.562;2023-02-12T04:41:30;100481.53;;;-0.88;51.80
54900;BME280;40801;41.924;25.562;2023-02-12T04:43:57;100472.59;;;-0.81;51.38
54900;BME280;40801;41.924;25.562;2023-02-12T04:46:22;100483.41;;;-0.82;51.65
54900;BME280;40801;41.924;25.562;2023-02-12T04:48:53;100501.53;;;-0.79;51.73
54900;BME280;40801;41.924;25.562;2023-02-12T04:51:19;100492.56;;;-0.78;51.64
54900;BME280;40801;41.924;25.562;2023-02-12T04:53:45;100513.97;;;-0.80;51.82
54900;BME280;40801;41.924;25.562;2023-02-12T04:56:12;100516.97;;;-0.89;52.36
54900;BME280;40801;41.924;25.562;2023-02-12T04:58:38;100516.78;;;-0.88;51.96
54900;BME280;40801;41.924;25.562;2023-02-12T05:01:04;100515.97;;;-0.88;52.20
54900;BME280;40801;41.924;25.562;2023-02-12T05:03:30;100513.97;;;-0.86;52.11
54900;BME280;40801;41.924;25.562;2023-02-12T05:05:55;100520.25;;;-0.94;52.40
54900;BME280;40801;41.924;25.562;2023-02-12T05:08:20;100525.13;;;-0.98;52.75
54900;BME280;40801;41.924;25.562;2023-02-12T05:10:46;100522.28;;;-0.96;52.77
54900;BME280;40801;41.924;25.562;2023-02-12T05:13:11;100522.88;;;-0.94;52.62
54900;BME280;40801;41.924;25.562;2023-02-12T05:15:40;100517.38;;;-0.99;53.55
54900;BME280;40801;41.924;25.562;2023-02-12T05:18:05;100518.41;;;-1.00;53.10
54900;BME280;40801;41.924;25.562;2023-02-12T05:20:30;100523.91;;;-1.02;53.36
54900;BME280;40801;41.924;25.562;2023-02-12T05:22:56;100523.28;;;-0.90;52.74
54900;BME280;40801;41.924;25.562;2023-02-12T05:25:21;100524.56;;;-0.80;52.15
54900;BME280;40801;41.924;25.562;2023-02-12T05:27:47;100527.41;;;-0.81;52.52
54900;BME280;40801;41.924;25.562;2023-02-12T05:30:12;100535.56;;;-0.76;52.97
54900;BME280;40801;41.924;25.562;2023-02-12T05:32:38;100542.69;;;-0.77;53.14
54900;BME280;40801;41.924;25.562;2023-02-12T05:35:04;100544.72;;;-0.72;52.34
54900;BME280;40801;41.924;25.562;2023-02-12T05:37:29;100553.47;;;-0.65;52.53
54900;BME280;40801;41.924;25.562;2023-02-12T05:39:55;100556.34;;;-0.60;52.58
54900;BME280;40801;41.924;25.562;2023-02-12T05:42:21;100556.34;;;-0.53;52.39
54900;BME280;40801;41.924;25.562;2023-02-12T05:44:46;100555.53;;;-0.47;52.08
54900;BME280;40801;41.924;25.562;2023-02-12T05:47:11;100566.13;;;-0.41;52.24
54900;BME280;40801;41.924;25.562;2023-02-12T05:49:37;100567.56;;;-0.32;51.70
54900;BME280;40801;41.924;25.562;2023-02-12T05:52:02;100574.91;;;-0.27;51.73
54900;BME280;40801;41.924;25.562;2023-02-12T05:54:28;100568.59;;;-0.26;51.69
54900;BME280;40801;41.924;25.562;2023-02-12T05:56:53;100577.97;;;-0.23;51.97
54900;BME280;40801;41.924;25.562;2023-02-12T05:59:20;100585.72;;;-0.22;52.16
54900;BME280;40801;41.924;25.562;2023-02-12T06:01:47;100582.22;;;-0.09;52.25
54900;BME280;40801;41.924;25.562;2023-02-12T06:04:16;100584.66;;;-0.01;52.18
54900;BME280;40801;41.924;25.562;2023-02-12T06:06:43;100577.75;;;0.05;52.14
54900;BME280;40801;41.924;25.562;2023-02-12T06:09:09;100581.41;;;0.10;52.07
54900;BME280;40801;41.924;25.562;2023-02-12T06:11:36;100586.69;;;0.10;51.94
54900;BME280;40801;41.924;25.562;2023-02-12T06:14:03;100594.63;;;0.17;52.02
54900;BME280;40801;41.924;25.562;2023-02-12T06:16:29;100599.31;;;0.28;51.57
54900;BME280;40801;41.924;25.562;2023-02-12T06:18:55;100603.19;;;0.32;51.41
54900;BME280;40801;41.924;25.562;2023-02-12T06:21:23;100602.34;;;0.38;51.75
54900;BME280;40801;41.924;25.562;2023-02-12T06:23:50;100589.28;;;0.43;51.59
54900;BME280;40801;41.924;25.562;2023-02-12T06:26:16;100590.47;;;0.54;51.32
54900;BME280;40801;41.924;25.562;2023-02-12T06:28:42;100588.63;;;0.61;51.34
54900;BME280;40801;41.924;25.562;2023-02-12T06:31:24;100595.56;;;0.62;51.67
54900;BME280;40801;41.924;25.562;2023-02-12T06:33:50;100590.00;;;0.70;51.05
54900;BME280;40801;41.924;25.562;2023-02-12T06:36:17;100595.25;;;0.83;50.73
54900;BME280;40801;41.924;25.562;2023-02-12T06:38:42;100593.63;;;0.89;50.97
54900;BME280;40801;41.924;25.562;2023-02-12T06:41:08;100595.56;;;1.07;50.06
54900;BME280;40801;41.924;25.562;2023-02-12T06:43:33;100594.91;;;1.11;49.83
54900;BME280;40801;41.924;25.562;2023-02-12T06:46:02;100598.78;;;1.15;50.31
54900;BME280;40801;41.924;25.562;2023-02-12T06:48:28;100601.84;;;1.12;50.14
54900;BME280;40801;41.924;25.562;2023-02-12T06:50:54;100608.56;;;1.21;50.44
54900;BME280;40801;41.924;25.562;2023-02-12T06:53:19;100617.19;;;1.17;50.09
54900;BME280;40801;41.924;25.562;2023-02-12T06:55:45;100629.13;;;1.33;50.00
54900;BME280;40801;41.924;25.562;2023-02-12T06:58:10;100630.56;;;1.35;50.00
54900;BME280;40801;41.924;25.562;2023-02-12T07:00:35;100632.59;;;1.33;49.92
54900;BME280;40801;41.924;25.562;2023-02-12T07:03:01;100624.78;;;1.45;49.71
54900;BME280;40801;41.924;25.562;2023-02-12T07:05:26;100623.91;;;1.51;50.00
54900;BME280;40801;41.924;25.562;2023-02-12T07:07:51;100621.38;;;1.63;49.90
54900;BME280;40801;41.924;25.562;2023-02-12T07:10:17;100616.50;;;1.84;50.16
54900;BME280;40801;41.924;25.562;2023-02-12T07:12:43;100613.06;;;2.02;49.73
54900;BME280;40801;41.924;25.562;2023-02-12T07:15:09;100621.22;;;2.32;48.83
54900;BME280;40801;41.924;25.562;2023-02-12T07:17:35;100620.78;;;2.54;49.32
54900;BME280;40801;41.924;25.562;2023-02-12T07:20:01;100616.78;;;2.44;48.84
54900;BME280;40801;41.924;25.562;2023-02-12T07:22:26;100621.50;;;2.79;48.65
54900;BME280;40801;41.924;25.562;2023-02-12T07:24:52;100620.81;;;3.20;48.84
54900;BME280;40801;41.924;25.562;2023-02-12T07:27:17;100629.88;;;3.72;47.90
54900;BME280;40801;41.924;25.562;2023-02-12T07:29:43;100624.38;;;4.09;47.21
54900;BME280;40801;41.924;25.562;2023-02-12T07:32:08;100621.25;;;4.12;46.63
54900;BME280;40801;41.924;25.562;2023-02-12T07:34:34;100622.94;;;3.95;46.38
54900;BME280;40801;41.924;25.562;2023-02-12T07:36:59;100621.00;;;4.25;45.57
54900;BME280;40801;41.924;25.562;2023-02-12T07:39:24;100615.44;;;4.15;45.14
54900;BME280;40801;41.924;25.562;2023-02-12T07:41:50;100623.56;;;4.09;44.95
54900;BME280;40801;41.924;25.562;2023-02-12T07:44:15;100612.50;;;3.82;45.42
54900;BME280;40801;41.924;25.562;2023-02-12T07:46:43;100616.91;;;3.76;45.44
54900;BME280;40801;41.924;25.562;2023-02-12T07:49:18;100617.84;;;3.82;45.16
54900;BME280;40801;41.924;25.562;2023-02-12T07:51:44;100619.13;;;3.79;45.90
54900;BME280;40801;41.924;25.562;2023-02-12T07:54:10;100621.56;;;3.81;45.17
54900;BME280;40801;41.924;25.562;2023-02-12T07:56:37;100620.97;;;3.79;45.69
54900;BME280;40801;41.924;25.562;2023-02-12T07:59:07;100616.19;;;3.69;46.13
54900;BME280;40801;41.924;25.562;2023-02-12T08:01:39;100622.66;;;3.61;45.59
54900;BME280;40801;41.924;25.562;2023-02-12T08:04:10;100615.88;;;3.77;45.90
54900;BME280;40801;41.924;25.562;2023-02-12T08:06:39;100633.16;;;3.98;45.30
54900;BME280;40801;41.924;25.562;2023-02-12T08:09:07;100628.19;;;4.13;45.29
54900;BME280;40801;41.924;25.562;2023-02-12T08:11:34;100633.06;;;4.16;44.83
54900;BME280;40801;41.924;25.562;2023-02-12T08:13:59;100635.38;;;4.24;44.18
54900;BME280;40801;41.924;25.562;2023-02-12T08:16:26;100634.34;;;4.49;44.01
54900;BME280;40801;41.924;25.562;2023-02-12T08:18:53;100635.59;;;4.70;43.58
54900;BME280;40801;41.924;25.562;2023-02-12T08:21:21;100634.19;;;4.79;43.26
54900;BME280;40801;41.924;25.562;2023-02-12T08:23:47;100649.59;;;4.88;43.01
54900;BME280;40801;41.924;25.562;2023-02-12T08:26:28;100641.34;;;5.02;42.35
54900;BME280;40801;41.924;25.562;2023-02-12T08:28:56;100645.50;;;5.09;42.59
54900;BME280;40801;41.924;25.562;2023-02-12T08:31:27;100655.13;;;5.22;42.74
54900;BME280;40801;41.924;25.562;2023-02-12T08:33:54;100654.59;;;5.37;42.33
54900;BME280;40801;41.924;25.562;2023-02-12T08:36:21;100658.84;;;5.49;42.36
54900;BME280;40801;41.924;25.562;2023-02-12T08:38:48;100650.75;;;5.61;42.05
54900;BME280;40801;41.924;25.562;2023-02-12T08:41:19;100665.78;;;5.79;42.22
54900;BME280;40801;41.924;25.562;2023-02-12T08:43:45;100656.47;;;5.81;42.00
54900;BME280;40801;41.924;25.562;2023-02-12T08:46:22;100654.53;;;5.94;41.55
54900;BME280;40801;41.924;25.562;2023-02-12T08:48:55;100663.41;;;6.11;40.96
54900;BME280;40801;41.924;25.562;2023-02-12T08:51:23;100659.91;;;6.27;40.71
54900;BME280;40801;41.924;25.562;2023-02-12T08:53:52;100668.88;;;6.55;39.97
54900;BME280;40801;41.924;25.562;2023-02-12T08:56:18;100670.97;;;6.69;39.15
54900;BME280;40801;41.924;25.562;2023-02-12T08:58:44;100676.75;;;7.00;39.06
54900;BME280;40801;41.924;25.562;2023-02-12T09:01:12;100676.41;;;7.40;39.31
54900;BME280;40801;41.924;25.562;2023-02-12T09:03:38;100679.09;;;7.94;38.70
54900;BME280;40801;41.924;25.562;2023-02-12T09:06:05;100682.19;;;8.40;37.58
54900;BME280;40801;41.924;25.562;2023-02-12T09:08:31;100677.44;;;8.57;37.55
54900;BME280;40801;41.924;25.562;2023-02-12T09:10:57;100676.19;;;8.69;36.92
54900;BME280;40801;41.924;25.562;2023-02-12T09:13:22;100683.28;;;8.96;36.87
54900;BME280;40801;41.924;25.562;2023-02-12T09:15:48;100680.53;;;9.48;35.91
54900;BME280;40801;41.924;25.562;2023-02-12T09:18:13;100681.97;;;10.12;35.17
54900;BME280;40801;41.924;25.562;2023-02-12T09:20:43;100683.75;;;10.98;32.72
54900;BME280;40801;41.924;25.562;2023-02-12T09:23:10;100671.47;;;11.36;32.01
54900;BME280;40801;41.924;25.562;2023-02-12T09:25:41;100674.94;;;12.25;31.67
54900;BME280;40801;41.924;25.562;2023-02-12T09:28:07;100665.09;;;12.87;31.76
54900;BME280;40801;41.924;25.562;2023-02-12T09:30:33;100675.50;;;12.98;31.22
54900;BME280;40801;41.924;25.562;2023-02-12T09:32:58;100671.03;;;12.89;30.24
54900;BME280;40801;41.924;25.562;2023-02-12T09:35:23;100684.06;;;13.35;30.48
54900;BME280;40801;41.924;25.562;2023-02-12T09:37:51;100670.72;;;13.57;29.33
54900;BME280;40801;41.924;25.562;2023-02-12T09:40:25;100674.38;;;13.85;28.31
54900;BME280;40801;41.924;25.562;2023-02-12T09:45:31;100670.69;;;15.28;25.85
54900;BME280;40801;41.924;25.562;2023-02-12T09:48:04;100666.69;;;15.75;25.26
54900;BME280;40801;41.924;25.562;2023-02-12T09:53:13;100661.69;;;16.14;25.43
54900;BME280;40801;41.924;25.562;2023-02-12T09:55:41;100661.38;;;16.37;25.34
54900;BME280;40801;41.924;25.562;2023-02-12T09:58:13;100661.72;;;16.45;23.85
54900;BME280;40801;41.924;25.562;2023-02-12T10:00:39;100654.91;;;16.25;24.15
54900;BME280;40801;41.924;25.562;2023-02-12T10:03:12;100656.69;;;15.85;24.08
54900;BME280;40801;41.924;25.562;2023-02-12T10:05:43;100650.09;;;15.13;24.05
54900;BME280;40801;41.924;25.562;2023-02-12T10:08:19;100658.16;;;14.50;25.07
54900;BME280;40801;41.924;25.562;2023-02-12T10:11:12;100659.66;;;13.53;26.17
54900;BME280;40801;41.924;25.562;2023-02-12T10:22:12;100668.81;;;13.39;26.78
54900;BME280;40801;41.924;25.562;2023-02-12T10:27:48;100662.00;;;13.41;27.10
54900;BME280;40801;41.924;25.562;2023-02-12T10:30:47;100667.50;;;13.36;26.79
54900;BME280;40801;41.924;25.562;2023-02-12T10:33:19;100661.22;;;13.17;26.92
54900;BME280;40801;41.924;25.562;2023-02-12T10:35:50;100654.78;;;12.89;27.71
54900;BME280;40801;41.924;25.562;2023-02-12T10:38:21;100650.66;;;12.73;27.21
54900;BME280;40801;41.924;25.562;2023-02-12T10:40:49;100645.47;;;12.76;27.72
54900;BME280;40801;41.924;25.562;2023-02-12T10:43:15;100643.53;;;12.53;27.74
54900;BME280;40801;41.924;25.562;2023-02-12T10:45:41;100645.38;;;12.57;27.69
54900;BME280;40801;41.924;25.562;2023-02-12T10:51:03;100655.28;;;14.09;26.35
54900;BME280;40801;41.924;25.562;2023-02-12T10:53:36;100651.09;;;14.63;26.21
54900;BME280;40801;41.924;25.562;2023-02-12T11:01:19;100640.72;;;17.33;22.69
54900;BME280;40801;41.924;25.562;2023-02-12T11:03:46;100642.63;;;17.24;22.61
54900;BME280;40801;41.924;25.562;2023-02-12T11:06:21;100636.94;;;17.69;20.85
54900;BME280;40801;41.924;25.562;2023-02-12T11:08:47;100642.81;;;18.22;21.20
54900;BME280;40801;41.924;25.562;2023-02-12T11:11:15;100649.75;;;17.85;21.56
54900;BME280;40801;41.924;25.562;2023-02-12T11:13:59;100651.97;;;17.57;20.46
54900;BME280;40801;41.924;25.562;2023-02-12T11:16:30;100662.00;;;17.05;21.40
54900;BME280;40801;41.924;25.562;2023-02-12T11:19:00;100660.88;;;16.35;21.58
54900;BME280;40801;41.924;25.562;2023-02-12T11:21:26;100660.97;;;15.99;22.20
54900;BME280;40801;41.924;25.562;2023-02-12T11:23:52;100663.03;;;15.30;23.17
54900;BME280;40801;41.924;25.562;2023-02-12T11:29:00;100656.06;;;15.52;22.98
54900;BME280;40801;41.924;25.562;2023-02-12T11:31:31;100661.84;;;15.36;23.27
54900;BME280;40801;41.924;25.562;2023-02-12T11:36:40;100662.41;;;15.61;23.05
54900;BME280;40801;41.924;25.562;2023-02-12T11:39:20;100667.50;;;14.99;23.30
54900;BME280;40801;41.924;25.562;2023-02-12T11:41:55;100665.22;;;15.06;24.17
54900;BME280;40801;41.924;25.562;2023-02-12T11:44:28;100664.94;;;15.43;23.27
54900;BME280;40801;41.924;25.562;2023-02-12T11:49:25;100657.34;;;15.18;23.87
54900;BME280;40801;41.924;25.562;2023-02-12T11:51:53;100665.94;;;14.05;24.53
54900;BME280;40801;41.924;25.562;2023-02-12T11:54:21;100659.88;;;14.87;24.19
54900;BME280;40801;41.924;25.562;2023-02-12T11:56:48;100656.34;;;15.14;24.08
54900;BME280;40801;41.924;25.562;2023-02-12T12:02:03;100653.59;;;15.41;23.42
54900;BME280;40801;41.924;25.562;2023-02-12T12:04:32;100653.91;;;15.26;23.38
54900;BME280;40801;41.924;25.562;2023-02-12T12:07:13;100658.63;;;15.21;23.09
54900;BME280;40801;41.924;25.562;2023-02-12T12:12:36;100664.78;;;14.99;24.07
54900;BME280;40801;41.924;25.562;2023-02-12T12:15:15;100667.94;;;15.06;23.75
54900;BME280;40801;41.924;25.562;2023-02-12T12:18:20;100670.66;;;15.06;23.47
54900;BME280;40801;41.924;25.562;2023-02-12T12:21:21;100685.91;;;14.61;23.64
54900;BME280;40801;41.924;25.562;2023-02-12T12:26:33;100677.38;;;15.08;23.40
54900;BME280;40801;41.924;25.562;2023-02-12T12:29:26;100674.22;;;15.42;23.47
54900;BME280;40801;41.924;25.562;2023-02-12T12:31:58;100681.78;;;15.82;22.44
54900;BME280;40801;41.924;25.562;2023-02-12T12:34:26;100674.31;;;15.87;22.85
54900;BME280;40801;41.924;25.562;2023-02-12T12:42:50;100686.44;;;14.90;23.62
54900;BME280;40801;41.924;25.562;2023-02-12T12:56:21;100702.34;;;16.10;22.63
54900;BME280;40801;41.924;25.562;2023-02-12T13:09:51;100713.66;;;17.93;21.28
54900;BME280;40801;41.924;25.562;2023-02-12T13:15:20;100726.19;;;18.03;21.36
54900;BME280;40801;41.924;25.562;2023-02-12T13:18:03;100721.81;;;18.19;20.65
54900;BME280;40801;41.924;25.562;2023-02-12T13:26:09;100733.03;;;19.37;19.54
54900;BME280;40801;41.924;25.562;2023-02-12T13:28:41;100736.91;;;18.34;20.17
54900;BME280;40801;41.924;25.562;2023-02-12T13:31:09;100736.63;;;18.01;20.61
54900;BME280;40801;41.924;25.562;2023-02-12T13:33:43;100739.44;;;17.61;21.24
54900;BME280;40801;41.924;25.562;2023-02-12T13:36:12;100744.06;;;17.03;21.57
54900;BME280;40801;41.924;25.562;2023-02-12T13:38:44;100747.63;;;16.51;21.90
54900;BME280;40801;41.924;25.562;2023-02-12T13:41:11;100756.94;;;16.14;22.32
54900;BME280;40801;41.924;25.562;2023-02-12T13:46:28;100774.59;;;15.25;23.01
54900;BME280;40801;41.924;25.562;2023-02-12T13:49:22;100763.81;;;15.75;22.73
54900;BME280;40801;41.924;25.562;2023-02-12T13:57:15;100755.53;;;17.71;21.34
54900;BME280;40801;41.924;25.562;2023-02-12T13:59:47;100758.28;;;18.32;20.67
54900;BME280;40801;41.924;25.562;2023-02-12T14:05:19;100763.56;;;18.71;19.83
54900;BME280;40801;41.924;25.562;2023-02-12T14:08:04;100769.53;;;18.30;20.45
54900;BME280;40801;41.924;25.562;2023-02-12T14:10:40;100774.03;;;18.35;20.29
54900;BME280;40801;41.924;25.562;2023-02-12T14:13:24;100771.00;;;18.27;20.19
54900;BME280;40801;41.924;25.562;2023-02-12T14:15:55;100772.41;;;18.42;20.47
54900;BME280;40801;41.924;25.562;2023-02-12T14:23:45;100781.09;;;17.36;20.91
54900;BME280;40801;41.924;25.562;2023-02-12T14:26:14;100780.78;;;16.75;21.66
54900;BME280;40801;41.924;25.562;2023-02-12T14:28:51;100787.97;;;15.76;22.62
54900;BME280;40801;41.924;25.562;2023-02-12T14:33:49;100801.53;;;14.62;23.99
54900;BME280;40801;41.924;25.562;2023-02-12T14:41:34;100819.09;;;13.22;25.19
54900;BME280;40801;41.924;25.562;2023-02-12T14:46:53;100812.78;;;13.03;25.66
54900;BME280;40801;41.924;25.562;2023-02-12T14:54:27;100834.34;;;12.01;27.05
54900;BME280;40801;41.924;25.562;2023-02-12T14:56:54;100844.69;;;11.94;27.16
54900;BME280;40801;41.924;25.562;2023-02-12T14:59:23;100852.28;;;11.87;27.54
54900;BME280;40801;41.924;25.562;2023-02-12T15:01:51;100848.47;;;11.93;27.09
54900;BME280;40801;41.924;25.562;2023-02-12T15:04:27;100851.47;;;11.76;27.84
54900;BME280;40801;41.924;25.562;2023-02-12T15:06:58;100862.59;;;11.64;28.06
54900;BME280;40801;41.924;25.562;2023-02-12T15:09:31;100864.78;;;11.57;27.96
54900;BME280;40801;41.924;25.562;2023-02-12T15:12:14;100877.50;;;11.41;28.01
54900;BME280;40801;41.924;25.562;2023-02-12T15:14:47;100875.38;;;11.23;28.68
54900;BME280;40801;41.924;25.562;2023-02-12T15:17:23;100882.69;;;11.07;29.61
54900;BME280;40801;41.924;25.562;2023-02-12T15:22:46;100900.50;;;10.93;30.20
54900;BME280;40801;41.924;25.562;2023-02-12T15:25:29;100911.03;;;10.84;29.75
54900;BME280;40801;41.924;25.562;2023-02-12T15:28:16;100910.19;;;10.64;29.94